Time;durP1;ratioP1;P1;durP2;ratioP2;P2;SDS_P1;SDS_P2;PMS_P1;PMS_P2;Temp;Humidity;BMP_temperature;BMP_pressure;BME280_temperature;BME280_humidity;BME280_pressure;Samples;Min_cycle;Max_cycle;Signal;HPM_P1;HPM_P2
2022/05/24 00:00:28;;;;;;;14.55;6.60;;;15.90;89.50;;;;;;5035562;28;20179;-86
2022/05/24 00:02:54;;;;;;;8.60;6.00;;;15.90;89.30;;;;;;5053242;28;20152;-86
2022/05/24 00:05:21;;;;;;;8.50;6.70;;;16.00;89.20;;;;;;5036069;28;20279;-86
2022/05/24 00:07:46;;;;;;;13.32;7.10;;;16.10;89.10;;;;;;5057171;28;20180;-86
2022/05/24 00:10:16;;;;;;;8.23;6.97;;;16.10;89.10;;;;;;5039330;28;20188;-86
2022/05/24 00:12:42;;;;;;;11.75;7.30;;;15.90;89.30;;;;;;5057208;28;20199;-86
2022/05/24 00:15:30;;;;;;;10.60;7.30;;;15.80;89.70;;;;;;5039010;28;20179;-86
2022/05/24 00:18:06;;;;;;;8.63;7.13;;;15.80;89.80;;;;;;5057085;28;20634;-86
2022/05/24 00:20:35;;;;;;;14.52;7.97;;;15.90;89.80;;;;;;5040303;28;20196;-87
2022/05/24 00:23:01;;;;;;;15.00;7.85;;;15.80;89.70;;;;;;5039733;28;20277;-86
2022/05/24 00:25:28;;;;;;;12.32;8.32;;;15.80;90.10;;;;;;5040608;28;20270;-86
2022/05/24 00:27:54;;;;;;;9.60;8.35;;;15.70;90.20;;;;;;5039942;28;20210;-86
2022/05/24 00:30:21;;;;;;;11.38;8.05;;;15.80;89.80;;;;;;5057418;28;20200;-85
2022/05/24 00:32:46;;;;;;;8.80;7.70;;;16.00;89.50;;;;;;5039117;28;20253;-86
2022/05/24 00:35:15;;;;;;;11.52;8.10;;;16.10;89.20;;;;;;5039669;28;20207;-86
2022/05/24 00:37:43;;;;;;;12.73;7.93;;;16.00;89.30;;;;;;5056615;28;20206;-86
2022/05/24 00:40:13;;;;;;;10.35;7.22;;;16.00;89.00;;;;;;5038906;28;20184;-86
2022/05/24 00:42:40;;;;;;;18.10;8.07;;;16.10;89.00;;;;;;5058403;28;20222;-85
2022/05/24 00:45:09;;;;;;;7.90;7.10;;;16.20;88.90;;;;;;5041295;28;20220;-86
2022/05/24 00:47:48;;;;;;;10.48;7.80;;;16.30;88.60;;;;;;5040428;28;20187;-86
2022/05/24 00:50:23;;;;;;;12.68;7.95;;;16.30;88.80;;;;;;5040290;28;20160;-86
2022/05/24 00:53:06;;;;;;;10.07;7.32;;;16.20;89.10;;;;;;5040877;28;20204;-86
2022/05/24 00:55:42;;;;;;;8.77;7.57;;;16.20;89.00;;;;;;5040381;28;20160;-86
2022/05/24 00:58:14;;;;;;;7.82;7.03;;;16.20;88.90;;;;;;5040488;28;20164;-86
2022/05/24 01:00:40;;;;;;;11.70;7.38;;;16.20;88.80;;;;;;5058189;28;20681;-86
2022/05/24 01:03:07;;;;;;;11.07;6.85;;;16.20;88.70;;;;;;5040472;28;20179;-86
2022/05/24 01:05:32;;;;;;;8.27;6.75;;;16.20;88.60;;;;;;5058254;28;20172;-86
2022/05/24 01:07:58;;;;;;;11.93;6.88;;;16.30;88.00;;;;;;5040804;28;20230;-86
2022/05/24 01:10:30;;;;;;;9.15;6.30;;;16.40;88.00;;;;;;5043879;28;20195;-87
2022/05/24 01:13:18;;;;;;;10.02;7.32;;;16.40;87.90;;;;;;5061961;28;20160;-87
2022/05/24 01:15:44;;;;;;;10.32;7.55;;;16.40;88.20;;;;;;5045504;28;20161;-87
2022/05/24 01:18:11;;;;;;;11.45;8.20;;;16.40;88.50;;;;;;5043782;28;20229;-87
2022/05/24 01:20:38;;;;;;;11.48;8.65;;;16.30;88.80;;;;;;5042503;28;20192;-87
2022/05/24 01:23:54;;;;;;;9.15;8.23;;;16.30;89.20;;;;;;5042540;28;20172;-87
2022/05/24 01:26:26;;;;;;;12.85;9.90;;;16.20;89.70;;;;;;5007853;28;20625;-86
2022/05/24 01:28:55;;;;;;;9.80;8.23;;;16.30;90.10;;;;;;5041232;28;20160;-86
2022/05/24 01:31:21;;;;;;;11.40;8.43;;;16.20;90.20;;;;;;5041376;28;20242;-86
2022/05/24 01:36:37;;;;;;;6.13;5.53;;;16.20;89.90;;;;;;5059367;28;20159;-87
2022/05/24 01:39:06;;;;;;;3.95;3.50;;;16.00;89.70;;;;;;5040341;28;20167;-87
2022/05/24 01:41:34;;;;;;;4.53;4.00;;;15.80;89.50;;;;;;5058236;28;20196;-86
2022/05/24 01:44:00;;;;;;;8.07;3.90;;;15.70;89.40;;;;;;5041182;28;20602;-86
2022/05/24 01:46:37;;;;;;;7.53;4.05;;;15.60;89.50;;;;;;5041901;28;20218;-87
2022/05/24 01:49:12;;;;;;;7.60;4.60;;;15.60;89.60;;;;;;5046834;28;20179;-87
2022/05/24 01:51:54;;;;;;;5.40;4.68;;;15.60;89.70;;;;;;5059678;28;20208;-87
2022/05/24 01:54:21;;;;;;;6.50;4.72;;;15.50;89.70;;;;;;5047745;28;20164;-88
2022/05/24 01:56:53;;;;;;;8.10;6.27;;;15.50;89.70;;;;;;5047155;28;20172;-88
2022/05/24 01:59:20;;;;;;;10.60;6.30;;;15.50;89.50;;;;;;5044105;28;20255;-87
2022/05/24 02:01:53;;;;;;;8.00;6.50;;;15.50;89.50;;;;;;5043393;28;20200;-87
2022/05/24 02:04:21;;;;;;;7.57;6.10;;;15.50;89.40;;;;;;5042897;28;20364;-88
2022/05/24 02:07:08;;;;;;;8.53;6.83;;;15.40;89.40;;;;;;5043253;28;20239;-86
2022/05/24 02:09:38;;;;;;;11.68;7.20;;;15.40;89.30;;;;;;5044514;28;20168;-88
2022/05/24 02:12:13;;;;;;;7.68;6.88;;;15.40;89.30;;;;;;5044854;28;20277;-87
2022/05/24 02:14:52;;;;;;;10.13;7.38;;;15.50;89.30;;;;;;5062183;28;20152;-88
2022/05/24 02:17:22;;;;;;;10.57;7.83;;;15.40;89.20;;;;;;5046486;28;20168;-87
2022/05/24 02:19:51;;;;;;;8.93;7.67;;;15.50;88.90;;;;;;5064054;28;20657;-89
2022/05/24 02:22:26;;;;;;;10.13;7.77;;;15.40;88.90;;;;;;5045010;28;20690;-87
2022/05/24 02:24:57;;;;;;;16.23;8.60;;;15.40;88.90;;;;;;5042227;28;20179;-87
2022/05/24 02:27:24;;;;;;;11.17;8.37;;;15.40;88.90;;;;;;5042064;28;20176;-87
2022/05/24 02:29:50;;;;;;;10.73;9.47;;;15.40;88.80;;;;;;5040449;28;20199;-87
2022/05/24 02:32:15;;;;;;;15.03;10.57;;;15.40;88.70;;;;;;5042306;28;20686;-87
2022/05/24 02:34:41;;;;;;;13.87;11.10;;;15.30;88.60;;;;;;5064630;28;20711;-88
2022/05/24 02:37:06;;;;;;;15.43;11.60;;;15.30;88.70;;;;;;5048676;28;20168;-88
2022/05/24 02:41:28;;;;;;;17.00;12.20;;;15.30;88.40;;;;;;5065234;28;20175;-87
2022/05/24 02:42:17;;;;;;;16.63;11.53;;;15.30;88.30;;;;;;5064519;28;20207;-88
2022/05/24 02:44:43;;;;;;;14.43;12.03;;;15.20;88.40;;;;;;5047612;28;20180;-88
2022/05/24 02:47:08;;;;;;;16.30;12.70;;;15.30;88.50;;;;;;5066340;28;20176;-88
2022/05/24 02:49:34;;;;;;;15.77;12.23;;;15.20;88.40;;;;;;5048740;28;20179;-88
2022/05/24 02:51:59;;;;;;;17.10;13.47;;;15.20;88.30;;;;;;5063994;28;20225;-88
2022/05/24 02:54:25;;;;;;;17.17;12.70;;;15.20;88.40;;;;;;5064308;28;20176;-88
2022/05/24 02:56:50;;;;;;;14.20;12.40;;;15.20;88.40;;;;;;5046711;28;20202;-87
2022/05/24 02:59:16;;;;;;;17.17;12.87;;;15.20;88.40;;;;;;5045295;28;20175;-88
2022/05/24 03:01:42;;;;;;;14.70;12.43;;;15.20;88.40;;;;;;5046257;28;20260;-87
2022/05/24 03:04:07;;;;;;;16.77;13.30;;;15.10;88.20;;;;;;5045698;28;20648;-87
2022/05/24 03:09:33;;;;;;;18.07;13.40;;;15.10;88.20;;;;;;5045944;28;20184;-87
2022/05/24 03:09:36;;;;;;;18.77;13.60;;;15.10;88.20;;;;;;5064308;28;20218;-88
2022/05/24 03:14:53;;;;;;;17.50;13.40;;;15.00;88.30;;;;;;5061392;28;20159;-87
2022/05/24 03:17:19;;;;;;;16.97;15.13;;;15.00;88.40;;;;;;5044590;28;20188;-87
2022/05/24 03:19:46;;;;;;;17.83;14.33;;;15.00;88.60;;;;;;5060001;28;20180;-87
2022/05/24 03:22:13;;;;;;;22.07;14.33;;;15.00;88.60;;;;;;5041647;28;20736;-87
2022/05/24 03:24:39;;;;;;;15.93;14.07;;;15.00;88.20;;;;;;5042843;28;20176;-87
2022/05/24 03:27:11;;;;;;;14.47;12.93;;;14.90;88.10;;;;;;5042482;28;20201;-87
2022/05/24 03:29:44;;;;;;;18.70;13.30;;;14.90;88.10;;;;;;5041952;28;20226;-88
2022/05/24 03:32:11;;;;;;;20.83;13.50;;;14.90;88.10;;;;;;5060141;28;20215;-88
2022/05/24 03:34:37;;;;;;;19.37;12.83;;;14.80;88.10;;;;;;5042100;28;20184;-88
2022/05/24 03:37:03;;;;;;;15.90;11.90;;;14.90;88.10;;;;;;5043485;28;20176;-87
2022/05/24 03:39:29;;;;;;;14.13;11.67;;;14.80;87.60;;;;;;5042022;28;20183;-87
2022/05/24 03:41:54;;;;;;;17.33;11.50;;;14.80;87.60;;;;;;5058844;28;20390;-87
2022/05/24 03:44:20;;;;;;;16.30;12.40;;;14.80;87.50;;;;;;5040448;28;20190;-87
2022/05/24 03:46:46;;;;;;;14.53;11.13;;;14.80;87.70;;;;;;5042125;28;20213;-88
2022/05/24 03:49:14;;;;;;;15.13;11.00;;;14.80;87.80;;;;;;5059771;28;20630;-88
2022/05/24 03:51:40;;;;;;;19.03;11.60;;;14.80;87.60;;;;;;5058759;28;20596;-87
2022/05/24 03:54:06;;;;;;;14.37;11.67;;;14.80;87.40;;;;;;5057626;28;20183;-87
2022/05/24 03:56:33;;;;;;;14.57;11.23;;;14.80;87.70;;;;;;5058681;28;20172;-87
2022/05/24 03:58:58;;;;;;;15.23;10.07;;;14.80;87.60;;;;;;5058284;28;20172;-87
2022/05/24 04:01:24;;;;;;;12.33;10.43;;;14.80;87.10;;;;;;5040465;28;20681;-87
2022/05/24 04:03:49;;;;;;;17.47;9.37;;;14.80;87.00;;;;;;5040487;28;20206;-87
2022/05/24 04:06:15;;;;;;;9.97;8.33;;;14.80;86.90;;;;;;5057749;28;20233;-87
2022/05/24 04:08:41;;;;;;;12.27;8.43;;;14.70;86.70;;;;;;5045197;28;20184;-88
2022/05/24 04:11:09;;;;;;;9.97;7.90;;;14.70;86.70;;;;;;5043302;28;20200;-87
2022/05/24 04:13:37;;;;;;;9.63;7.20;;;14.70;86.80;;;;;;5041521;28;20204;-87
2022/05/24 04:16:03;;;;;;;9.40;6.17;;;14.70;86.50;;;;;;5041319;28;20176;-88
2022/05/24 04:18:28;;;;;;;10.73;6.10;;;14.60;85.70;;;;;;5042936;28;20172;-89
2022/05/24 04:20:54;;;;;;;11.03;6.00;;;14.70;85.90;;;;;;5043381;28;20258;-87
2022/05/24 04:23:21;;;;;;;11.30;6.07;;;14.60;85.70;;;;;;5043494;28;20202;-88
2022/05/24 04:25:47;;;;;;;8.07;6.43;;;14.60;85.90;;;;;;5041734;28;20168;-86
2022/05/24 04:28:14;;;;;;;7.47;5.73;;;14.60;86.00;;;;;;5043358;28;20172;-87
2022/05/24 04:30:40;;;;;;;11.13;6.77;;;14.60;86.10;;;;;;5045267;28;20234;-87
2022/05/24 04:33:05;;;;;;;10.17;6.10;;;14.60;86.50;;;;;;5043037;28;20183;-87
2022/05/24 04:35:31;;;;;;;7.23;5.77;;;14.60;86.60;;;;;;5043463;28;20176;-87
2022/05/24 04:37:59;;;;;;;9.57;6.33;;;14.60;86.80;;;;;;5043379;28;20180;-88
2022/05/24 04:43:09;;;;;;;10.13;6.47;;;14.60;86.70;;;;;;5060513;28;20175;-88
2022/05/24 04:45:35;;;;;;;11.87;5.97;;;14.60;86.70;;;;;;5044562;28;20245;-87
2022/05/24 04:48:01;;;;;;;9.73;5.67;;;14.50;86.80;;;;;;5062034;28;20188;-88
2022/05/24 04:50:27;;;;;;;9.20;6.27;;;14.60;86.80;;;;;;5043776;28;20223;-88
2022/05/24 04:52:53;;;;;;;11.90;6.17;;;14.60;86.80;;;;;;5046504;28;20581;-88
2022/05/24 04:55:18;;;;;;;6.33;5.73;;;14.50;86.90;;;;;;5045872;28;20271;-88
2022/05/24 04:57:44;;;;;;;8.77;6.00;;;14.50;87.10;;;;;;5046279;28;20210;-87
2022/05/24 05:00:14;;;;;;;9.20;6.37;;;14.50;86.60;;;;;;5063588;28;20254;-87
2022/05/24 05:02:40;;;;;;;9.23;6.63;;;14.40;86.70;;;;;;5045981;28;20263;-88
2022/05/24 05:05:06;;;;;;;8.77;6.80;;;14.40;86.90;;;;;;5047336;28;20176;-88
2022/05/24 05:07:32;;;;;;;11.83;6.67;;;14.50;87.50;;;;;;5047097;28;20183;-88
2022/05/24 05:09:58;;;;;;;8.53;6.37;;;14.60;87.60;;;;;;5047912;28;20176;-89
2022/05/24 05:12:26;;;;;;;7.97;6.10;;;14.60;87.60;;;;;;5048553;28;20235;-89
2022/05/24 05:14:52;;;;;;;10.97;6.90;;;14.50;87.60;;;;;;5066667;28;20164;-89
2022/05/24 05:17:18;;;;;;;10.03;6.80;;;14.50;87.50;;;;;;5067135;28;20192;-88
2022/05/24 05:19:45;;;;;;;14.13;6.83;;;14.50;87.10;;;;;;5048589;28;20186;-89
2022/05/24 05:22:11;;;;;;;15.70;6.90;;;14.50;86.90;;;;;;5046931;28;20573;-88
2022/05/24 05:24:36;;;;;;;7.07;5.63;;;14.50;86.40;;;;;;5047546;28;20176;-89
2022/05/24 05:27:03;;;;;;;9.67;5.77;;;14.40;85.40;;;;;;5048096;28;20179;-90
2022/05/24 05:32:18;;;;;;;8.43;5.70;;;14.50;84.70;;;;;;5066159;28;20223;-90
2022/05/24 05:34:45;;;;;;;11.43;6.40;;;14.50;85.10;;;;;;5048972;28;20592;-88
2022/05/24 05:37:10;;;;;;;10.50;6.53;;;14.50;85.00;;;;;;5048217;28;20222;-88
2022/05/24 05:39:36;;;;;;;9.37;5.67;;;14.50;84.80;;;;;;5049746;28;20180;-88
2022/05/24 05:42:02;;;;;;;9.23;6.07;;;14.60;85.30;;;;;;5048132;28;20196;-89
2022/05/24 05:44:29;;;;;;;7.50;5.87;;;14.60;85.10;;;;;;5047317;28;20173;-88
2022/05/24 05:46:55;;;;;;;9.03;6.40;;;14.50;85.10;;;;;;5064351;28;20169;-89
2022/05/24 05:49:21;;;;;;;9.60;5.97;;;14.60;85.30;;;;;;5047630;28;20172;-88
2022/05/24 05:51:46;;;;;;;10.33;5.63;;;14.60;85.30;;;;;;5047006;28;20199;-89
2022/05/24 05:54:12;;;;;;;7.83;6.13;;;14.60;85.20;;;;;;5046867;28;20199;-89
2022/05/24 05:56:40;;;;;;;9.30;6.67;;;14.70;85.50;;;;;;5047222;28;20610;-88
2022/05/24 05:59:06;;;;;;;8.90;6.50;;;14.60;85.30;;;;;;5045436;28;20576;-88
2022/05/24 06:01:31;;;;;;;11.60;6.60;;;14.60;85.30;;;;;;5046914;28;20291;-89
2022/05/24 06:03:58;;;;;;;8.67;6.70;;;14.70;85.40;;;;;;5046581;28;20199;-88
2022/05/24 06:06:28;;;;;;;11.03;7.60;;;14.60;85.20;;;;;;5065023;28;20207;-88
2022/05/24 06:08:54;;;;;;;11.20;7.17;;;14.70;85.00;;;;;;5046459;28;20180;-88
2022/05/24 06:11:19;;;;;;;10.20;7.43;;;14.70;84.90;;;;;;5047017;28;20246;-88
2022/05/24 06:13:45;;;;;;;10.20;7.67;;;14.80;85.30;;;;;;5046611;28;20178;-88
2022/05/24 06:16:10;;;;;;;13.00;8.30;;;14.90;85.10;;;;;;5046214;28;20176;-88
2022/05/24 06:18:37;;;;;;;8.93;7.90;;;15.00;85.60;;;;;;5064030;28;20176;-89
2022/05/24 06:21:04;;;;;;;8.87;7.40;;;15.20;85.90;;;;;;5062819;28;20200;-88
2022/05/24 06:23:30;;;;;;;13.40;7.47;;;15.20;85.70;;;;;;5063572;28;20249;-88
2022/05/24 06:25:55;;;;;;;12.87;8.43;;;15.20;85.30;;;;;;5047230;28;20602;-88
2022/05/24 06:28:21;;;;;;;8.00;7.20;;;15.20;85.10;;;;;;5045779;28;20201;-90
2022/05/24 06:30:47;;;;;;;10.93;8.00;;;15.30;85.00;;;;;;5047275;28;20223;-88
2022/05/24 06:33:12;;;;;;;9.83;8.10;;;15.20;84.70;;;;;;5044788;28;20196;-89
2022/05/24 06:35:39;;;;;;;12.50;8.03;;;15.20;84.30;;;;;;5062123;28;20160;-89
2022/05/24 06:38:05;;;;;;;9.23;8.00;;;15.20;84.50;;;;;;5043497;28;20179;-88
2022/05/24 06:40:31;;;;;;;14.10;9.10;;;15.30;84.80;;;;;;5062485;28;20232;-89
2022/05/24 06:42:57;;;;;;;10.60;8.67;;;15.30;85.10;;;;;;5046171;28;20203;-88
2022/05/24 06:45:23;;;;;;;12.30;8.33;;;15.30;84.70;;;;;;5044379;28;20180;-88
2022/05/24 06:47:48;;;;;;;9.50;7.70;;;15.40;84.80;;;;;;5048045;28;20207;-89
2022/05/24 06:50:14;;;;;;;11.85;9.30;;;15.50;84.90;;;;;;5064073;28;20183;-88
2022/05/24 06:52:40;;;;;;;12.20;8.37;;;15.40;85.10;;;;;;5044701;28;20211;-88
2022/05/24 06:55:07;;;;;;;11.10;9.00;;;15.40;84.80;;;;;;5063673;28;20200;-88
2022/05/24 06:57:33;;;;;;;14.07;9.35;;;15.50;85.20;;;;;;5046029;28;20180;-88
2022/05/24 07:02:43;;;;;;;12.68;11.20;;;15.60;85.10;;;;;;5063452;28;20186;-87
2022/05/24 07:05:12;;;;;;;15.52;11.93;;;15.70;84.90;;;;;;5043250;28;20180;-88
2022/05/24 07:07:38;;;;;;;12.82;11.25;;;15.80;84.00;;;;;;5044320;28;20199;-85
2022/05/24 07:10:07;;;;;;;13.85;11.63;;;15.90;84.40;;;;;;5038016;28;20176;-88
2022/05/24 07:12:33;;;;;;;14.23;11.65;;;15.90;84.00;;;;;;5057101;28;20224;-88
2022/05/24 07:14:59;;;;;;;17.23;13.60;;;16.00;84.40;;;;;;5038386;28;20692;-88
2022/05/24 07:17:25;;;;;;;17.13;12.38;;;16.20;85.10;;;;;;5055936;28;20168;-88
2022/05/24 07:19:50;;;;;;;14.02;12.43;;;16.20;84.20;;;;;;5039278;28;20184;-88
2022/05/24 07:22:16;;;;;;;13.73;11.93;;;16.10;83.70;;;;;;5058001;28;20191;-89
2022/05/24 07:24:42;;;;;;;14.25;12.77;;;16.20;83.60;;;;;;5042187;28;20271;-89
2022/05/24 07:27:13;;;;;;;18.15;14.23;;;16.20;83.80;;;;;;5042298;28;20183;-89
2022/05/24 07:29:40;;;;;;;16.33;13.98;;;16.20;83.40;;;;;;5058879;28;20192;-87
2022/05/24 07:32:06;;;;;;;20.23;14.75;;;16.20;83.70;;;;;;5057301;28;20766;-87
2022/05/24 07:34:33;;;;;;;18.08;13.50;;;16.10;83.50;;;;;;5041740;28;20197;-88
2022/05/24 07:37:00;;;;;;;16.90;13.75;;;16.10;84.10;;;;;;5059639;28;20172;-87
2022/05/24 07:39:26;;;;;;;17.98;15.93;;;16.20;84.40;;;;;;5038936;28;20179;-88
2022/05/24 07:47:21;;;;;;;20.00;16.13;;;16.30;83.90;;;;;;5060139;28;20167;-89
2022/05/24 07:49:46;;;;;;;18.58;16.08;;;16.30;84.00;;;;;;5041649;28;20172;-88
2022/05/24 07:52:12;;;;;;;19.00;15.30;;;16.20;83.20;;;;;;5059639;28;20222;-88
2022/05/24 07:54:37;;;;;;;17.92;16.02;;;16.20;83.20;;;;;;5059403;28;20171;-89
2022/05/24 07:57:08;;;;;;;21.92;16.88;;;16.20;82.80;;;;;;5038941;28;20180;-89
2022/05/24 07:59:35;;;;;;;17.58;15.73;;;16.20;82.70;;;;;;5039743;28;20160;-88
2022/05/24 08:02:01;;;;;;;20.35;17.38;;;16.30;83.00;;;;;;5057274;28;20199;-88
2022/05/24 08:04:26;;;;;;;23.02;17.45;;;16.30;83.10;;;;;;5038356;28;20215;-88
2022/05/24 08:06:53;;;;;;;20.98;16.83;;;16.30;82.60;;;;;;5038201;28;20183;-88
2022/05/24 08:09:19;;;;;;;25.25;17.13;;;16.30;83.00;;;;;;5038327;28;20186;-88
2022/05/24 08:11:44;;;;;;;19.25;16.42;;;16.40;83.10;;;;;;5037518;28;20204;-88
2022/05/24 08:14:10;;;;;;;17.98;16.10;;;16.50;82.70;;;;;;5037815;28;20635;-88
2022/05/24 08:16:35;;;;;;;19.42;17.33;;;16.60;82.60;;;;;;5038811;28;20649;-86
2022/05/24 08:19:02;;;;;;;17.80;15.95;;;16.60;81.70;;;;;;5053986;28;20549;-87
2022/05/24 08:21:29;;;;;;;18.27;16.38;;;16.60;81.10;;;;;;5036578;28;20678;-88
2022/05/24 08:23:55;;;;;;;19.98;17.25;;;16.60;81.40;;;;;;5055178;28;20176;-88
2022/05/24 08:26:20;;;;;;;17.27;15.48;;;16.60;81.30;;;;;;5037234;28;20179;-89
2022/05/24 08:28:50;;;;;;;16.80;14.68;;;16.60;80.90;;;;;;5040678;28;20218;-88
2022/05/24 08:31:17;;;;;;;16.65;13.57;;;16.60;80.80;;;;;;5080080;22;20227;-91
2022/05/24 08:33:44;;;;;;;18.15;15.63;;;16.50;80.30;;;;;;5055328;28;20595;-91
2022/05/24 08:36:10;;;;;;;20.50;14.40;;;16.60;80.70;;;;;;5056230;28;20176;-91
2022/05/24 08:38:36;;;;;;;17.95;14.85;;;16.60;80.40;;;;;;5055331;28;20172;-90
2022/05/24 08:41:06;;;;;;;15.35;13.75;;;16.60;80.90;;;;;;5055522;28;20192;-90
2022/05/24 08:43:49;;;;;;;15.57;13.85;;;16.60;81.60;;;;;;5057138;28;20182;-91
2022/05/24 08:49:05;;;;;;;15.43;13.77;;;16.60;80.40;;;;;;5057552;28;20524;-91
2022/05/24 08:51:54;;;;;;;18.05;14.95;;;16.60;80.90;;;;;;5055350;28;20211;-91
2022/05/24 08:54:36;;;;;;;21.40;14.00;;;16.60;80.80;;;;;;5056475;28;20164;-91
2022/05/24 08:57:09;;;;;;;16.27;14.55;;;16.70;81.30;;;;;;5055760;28;20168;-91
2022/05/24 09:00:05;;;;;;;22.13;14.77;;;16.80;81.50;;;;;;5055005;28;20171;-92
2022/05/24 09:02:31;;;;;;;16.95;14.23;;;16.80;80.50;;;;;;5053987;28;20199;-92
2022/05/24 09:04:57;;;;;;;16.65;14.52;;;16.90;80.20;;;;;;5055684;28;20176;-92
2022/05/24 09:07:33;;;;;;;15.60;13.40;;;16.80;79.60;;;;;;5055344;28;20207;-91
2022/05/24 09:10:05;;;;;;;21.48;14.00;;;16.80;79.50;;;;;;5056393;28;20198;-91
2022/05/24 09:13:08;;;;;;;16.15;14.10;;;16.70;79.40;;;;;;5056125;28;20203;-90
2022/05/24 09:16:01;;;;;;;16.73;14.95;;;16.70;79.90;;;;;;5045262;28;20175;-90
2022/05/24 09:18:53;;;;;;;17.63;15.77;;;16.80;80.70;;;;;;5055955;28;20203;-88
2022/05/24 09:21:26;;;;;;;19.67;17.50;;;16.80;81.40;;;;;;5054316;28;20195;-89
2022/05/24 09:24:10;;;;;;;22.95;18.75;;;16.70;82.00;;;;;;5055092;28;20164;-88
2022/05/24 09:27:10;;;;;;;27.25;20.17;;;16.60;82.50;;;;;;5054323;28;20167;-88
2022/05/24 09:30:00;;;;;;;26.65;21.05;;;16.70;83.30;;;;;;5054033;28;20160;-88
2022/05/24 09:32:43;;;;;;;23.38;20.92;;;16.70;83.60;;;;;;5055292;28;20226;-88
2022/05/24 09:35:08;;;;;;;25.30;21.75;;;16.70;83.00;;;;;;5054140;28;20271;-88
2022/05/24 09:37:35;;;;;;;25.55;20.23;;;16.80;82.80;;;;;;5053867;28;20195;-89
2022/05/24 09:40:05;;;;;;;30.63;22.10;;;16.90;82.90;;;;;;5054028;28;20192;-89
2022/05/24 09:42:36;;;;;;;30.17;22.35;;;16.90;83.10;;;;;;5054015;28;20689;-88
2022/05/24 09:45:23;;;;;;;21.48;19.17;;;16.80;82.80;;;;;;5053980;28;20244;-89
2022/05/24 09:47:57;;;;;;;22.85;19.85;;;16.70;81.70;;;;;;5055164;28;20239;-89
2022/05/24 09:50:33;;;;;;;22.48;19.73;;;16.60;82.10;;;;;;5053845;28;20199;-88
2022/05/24 09:53:02;;;;;;;22.58;19.40;;;16.50;82.30;;;;;;5053760;28;20203;-88
2022/05/24 09:56:00;;;;;;;22.67;18.08;;;16.40;81.40;;;;;;5053681;28;20172;-88
2022/05/24 09:58:30;;;;;;;22.23;18.55;;;16.20;81.00;;;;;;5055211;28;20194;-88
2022/05/24 10:01:07;;;;;;;25.77;20.33;;;16.00;81.20;;;;;;5054792;28;20195;-88
2022/05/24 10:03:35;;;;;;;26.15;20.75;;;16.00;82.30;;;;;;5053575;28;20214;-88
2022/05/24 10:06:24;;;;;;;26.63;23.65;;;16.00;82.90;;;;;;5053490;28;20728;-88
2022/05/24 10:08:54;;;;;;;28.83;24.52;;;15.90;82.50;;;;;;5053485;28;20203;-88
2022/05/24 10:11:28;;;;;;;28.98;25.40;;;15.90;82.40;;;;;;5054453;28;20207;-88
2022/05/24 10:14:17;;;;;;;31.60;26.23;;;16.00;83.40;;;;;;5054608;28;20152;-88
2022/05/24 10:16:43;;;;;;;32.65;27.80;;;16.00;82.90;;;;;;5053284;28;20542;-88
2022/05/24 10:19:20;;;;;;;36.67;28.33;;;16.00;83.00;;;;;;5054356;28;20164;-88
2022/05/24 10:22:14;;;;;;;33.53;28.17;;;16.00;83.10;;;;;;5053135;28;20200;-89
2022/05/24 10:25:00;;;;;;;28.77;25.80;;;16.00;83.30;;;;;;5054410;28;20161;-89
2022/05/24 10:27:30;;;;;;;32.25;26.92;;;16.10;83.30;;;;;;5053125;28;20164;-88
2022/05/24 10:30:01;;;;;;;29.60;24.85;;;16.00;82.60;;;;;;5054166;28;20298;-88
2022/05/24 10:39:46;;;;;;;29.25;26.27;;;16.00;83.40;;;;;;5054211;28;20593;-88
2022/05/24 10:42:37;;;;;;;30.20;26.33;;;16.00;83.50;;;;;;5054375;28;20236;-88
2022/05/24 10:45:49;;;;;;;29.17;26.17;;;15.90;83.90;;;;;;5054189;28;20160;-88
2022/05/24 10:48:13;;;;;;;37.28;30.35;;;15.80;84.30;;;;;;5053790;28;20176;-88
2022/05/24 10:50:51;;;;;;;34.00;29.73;;;15.70;84.70;;;;;;5053305;28;20234;-88
2022/05/24 10:53:39;;;;;;;30.73;27.45;;;15.70;84.90;;;;;;5053822;28;20516;-89
2022/05/24 10:56:17;;;;;;;28.65;25.42;;;15.70;84.90;;;;;;5052679;28;20618;-91
2022/05/24 10:58:43;;;;;;;31.02;27.00;;;15.70;84.90;;;;;;5054032;28;20167;-91
2022/05/24 11:01:27;;;;;;;33.00;28.13;;;15.60;85.30;;;;;;5053151;28;20230;-91
2022/05/24 11:03:58;;;;;;;32.97;28.15;;;15.80;86.10;;;;;;5052802;28;20247;-91
2022/05/24 11:06:37;;;;;;;28.85;23.33;;;15.80;86.30;;;;;;5052887;28;20164;-91
2022/05/24 11:09:13;;;;;;;23.33;19.47;;;15.80;85.50;;;;;;5053908;28;20179;-91
2022/05/24 11:12:12;;;;;;;29.50;18.53;;;15.80;84.60;;;;;;5053727;28;20697;-91
2022/05/24 11:14:55;;;;;;;22.20;16.57;;;15.80;83.90;;;;;;5051367;28;20195;-91
2022/05/24 11:17:21;;;;;;;20.10;15.50;;;15.90;84.10;;;;;;5053424;28;20172;-91
2022/05/24 11:19:51;;;;;;;20.33;14.65;;;16.00;83.20;;;;;;5052325;28;20168;-91
2022/05/24 11:22:26;;;;;;;21.27;13.13;;;16.00;83.00;;;;;;5052360;28;20267;-91
2022/05/24 11:24:55;;;;;;;19.63;12.45;;;16.10;82.80;;;;;;5052728;28;20175;-91
2022/05/24 11:27:43;;;;;;;21.17;13.27;;;16.20;82.50;;;;;;5053152;28;20172;-92
2022/05/24 11:30:14;;;;;;;23.08;14.18;;;16.20;81.90;;;;;;5053873;28;20207;-91
2022/05/24 11:32:50;;;;;;;19.75;14.15;;;16.40;82.70;;;;;;5053084;28;20187;-91
2022/05/24 11:35:19;;;;;;;21.10;14.75;;;16.70;83.30;;;;;;5052294;28;20622;-91
2022/05/24 11:37:50;;;;;;;19.80;13.52;;;16.80;82.50;;;;;;5052302;28;20706;-91
2022/05/24 11:40:39;;;;;;;18.75;13.65;;;16.80;81.40;;;;;;5052440;28;20196;-91
2022/05/24 11:43:43;;;;;;;17.75;13.07;;;16.70;80.20;;;;;;5052662;28;20516;-91
2022/05/24 11:46:35;;;;;;;14.63;11.75;;;16.60;79.40;;;;;;5052192;28;20302;-91
2022/05/24 11:49:05;;;;;;;17.52;11.90;;;16.50;79.60;;;;;;5044724;28;20191;-91
2022/05/24 11:51:39;;;;;;;12.82;11.48;;;16.60;79.80;;;;;;5052024;28;20211;-91
2022/05/24 11:54:08;;;;;;;18.58;12.45;;;16.70;79.90;;;;;;5052582;28;20175;-91
2022/05/24 11:56:34;;;;;;;14.88;12.50;;;16.80;79.80;;;;;;5053483;28;20164;-91
2022/05/24 11:59:06;;;;;;;19.23;12.85;;;16.80;78.60;;;;;;5052112;28;20179;-91
2022/05/24 12:01:31;;;;;;;16.38;12.77;;;16.90;79.10;;;;;;5054714;28;20254;-91
2022/05/24 12:10:03;;;;;;;18.33;12.88;;;17.60;77.80;;;;;;5057969;28;20221;-91
2022/05/24 12:12:32;;;;;;;15.77;12.20;;;17.50;76.90;;;;;;5056927;28;20204;-92
2022/05/24 12:15:16;;;;;;;14.15;12.05;;;17.50;77.10;;;;;;5057767;28;20172;-92
2022/05/24 12:17:44;;;;;;;18.45;11.40;;;17.50;76.40;;;;;;5056986;28;20540;-92
2022/05/24 12:20:33;;;;;;;12.93;10.90;;;17.80;76.30;;;;;;5057291;28;20192;-92
2022/05/24 12:23:13;;;;;;;15.30;11.02;;;18.00;75.60;;;;;;5056652;28;20255;-93
2022/05/24 12:26:02;;;;;;;18.38;10.77;;;18.20;75.30;;;;;;5055902;28;20191;-92
2022/05/24 12:28:58;;;;;;;16.08;9.52;;;18.60;74.50;;;;;;5057533;28;20534;-92
2022/05/24 12:31:30;;;;;;;12.52;9.48;;;18.70;72.70;;;;;;5056879;28;20215;-92
2022/05/24 12:33:57;;;;;;;11.82;8.93;;;18.80;71.50;;;;;;5057278;28;20175;-92
2022/05/24 12:36:31;;;;;;;13.10;9.18;;;18.80;69.30;;;;;;5057032;28;20597;-92
2022/05/24 12:39:03;;;;;;;11.43;8.77;;;18.80;70.50;;;;;;5057030;28;20626;-93
2022/05/24 12:41:34;;;;;;;16.17;8.95;;;19.00;70.30;;;;;;5059073;28;20218;-92
2022/05/24 12:44:12;;;;;;;10.65;8.05;;;19.10;69.10;;;;;;5058802;28;20176;-92
2022/05/24 12:46:38;;;;;;;13.27;7.50;;;19.00;69.10;;;;;;5060133;28;20153;-92
2022/05/24 12:49:14;;;;;;;12.02;7.65;;;19.30;69.60;;;;;;5056777;28;20180;-92
2022/05/24 12:51:40;;;;;;;11.48;7.82;;;19.40;68.50;;;;;;5055375;28;20215;-92
2022/05/24 12:54:19;;;;;;;11.32;7.43;;;19.40;68.30;;;;;;5055825;28;20524;-92
2022/05/24 12:57:16;;;;;;;10.00;7.85;;;19.40;67.00;;;;;;5055778;28;20168;-92
2022/05/24 12:59:49;;;;;;;12.95;7.25;;;19.30;66.50;;;;;;5049548;28;20229;-93
2022/05/24 13:02:33;;;;;;;10.35;6.95;;;19.40;67.20;;;;;;5056614;28;20164;-93
2022/05/24 13:05:08;;;;;;;11.80;6.80;;;19.30;64.40;;;;;;5058790;28;20184;-93
2022/05/24 13:07:39;;;;;;;11.50;6.60;;;19.00;63.90;;;;;;5057607;28;20168;-93
2022/05/24 13:10:23;;;;;;;17.15;6.78;;;18.80;64.80;;;;;;5057460;28;20208;-93
2022/05/24 13:13:15;;;;;;;8.45;6.82;;;18.70;65.00;;;;;;5056357;28;20203;-93
2022/05/24 13:15:45;;;;;;;9.13;7.40;;;18.30;65.00;;;;;;5057439;28;20244;-93
2022/05/24 13:18:20;;;;;;;11.43;6.38;;;18.30;66.90;;;;;;5057342;28;20180;-92
2022/05/24 13:20:56;;;;;;;8.27;6.90;;;18.10;66.60;;;;;;5057357;28;20684;-92
2022/05/24 13:23:36;;;;;;;10.85;8.30;;;18.00;67.90;;;;;;5056305;28;20184;-92
2022/05/24 13:26:02;;;;;;;8.85;6.35;;;17.90;68.70;;;;;;5055351;28;20227;-92
2022/05/24 13:28:36;;;;;;;9.57;6.70;;;17.80;68.40;;;;;;5055716;28;20249;-92